sensor_id;sensor_type;location;lat;lon;timestamp;P1;durP1;ratioP1;P2;durP2;ratioP2
37273;SDS011;23161;51.250;5.554;2024-02-26T00:01:20;2.60;;;1.38;;
37273;SDS011;23161;51.250;5.554;2024-02-26T00:02:51;1.88;;;1.73;;
37273;SDS011;23161;51.250;5.554;2024-02-26T00:04:22;1.58;;;1.48;;
37273;SDS011;23161;51.250;5.554;2024-02-26T00:05:53;5.05;;;3.03;;
37273;SDS011;23161;51.250;5.554;2024-02-26T00:07:23;1.88;;;1.77;;
37273;SDS011;23161;51.250;5.554;2024-02-26T00:08:54;2.30;;;2.08;;
37273;SDS011;23161;51.250;5.554;2024-02-26T00:10:25;1.60;;;1.50;;
37273;SDS011;23161;51.250;5.554;2024-02-26T00:11:56;1.45;;;1.35;;
37273;SDS011;23161;51.250;5.554;2024-02-26T00:13:27;1.83;;;1.73;;
37273;SDS011;23161;51.250;5.554;2024-02-26T00:14:58;2.15;;;1.95;;
37273;SDS011;23161;51.250;5.554;2024-02-26T00:16:29;2.25;;;2.15;;
37273;SDS011;23161;51.250;5.554;2024-02-26T00:18:01;3.63;;;2.63;;
37273;SDS011;23161;51.250;5.554;2024-02-26T00:19:31;1.75;;;1.65;;
37273;SDS011;23161;51.250;5.554;2024-02-26T00:21:03;1.23;;;1.10;;
37273;SDS011;23161;51.250;5.554;2024-02-26T00:22:35;5.53;;;1.65;;
37273;SDS011;23161;51.250;5.554;2024-02-26T00:24:06;1.20;;;1.10;;
37273;SDS011;23161;51.250;5.554;2024-02-26T00:25:36;5.15;;;1.13;;
37273;SDS011;23161;51.250;5.554;2024-02-26T00:27:07;1.92;;;1.83;;
37273;SDS011;23161;51.250;5.554;2024-02-26T00:28:38;1.77;;;1.67;;
37273;SDS011;23161;51.250;5.554;2024-02-26T00:30:09;2.47;;;1.50;;
37273;SDS011;23161;51.250;5.554;2024-02-26T00:31:40;6.00;;;2.20;;
37273;SDS011;23161;51.250;5.554;2024-02-26T00:33:11;2.42;;;2.22;;
37273;SDS011;23161;51.250;5.554;2024-02-26T00:34:42;2.78;;;1.90;;
37273;SDS011;23161;51.250;5.554;2024-02-26T00:36:13;1.88;;;1.77;;
37273;SDS011;23161;51.250;5.554;2024-02-26T00:37:43;7.95;;;2.38;;
37273;SDS011;23161;51.250;5.554;2024-02-26T00:39:14;1.42;;;1.35;;
37273;SDS011;23161;51.250;5.554;2024-02-26T00:40:45;1.42;;;1.33;;
37273;SDS011;23161;51.250;5.554;2024-02-26T00:42:16;10.57;;;2.00;;
37273;SDS011;23161;51.250;5.554;2024-02-26T00:43:47;1.75;;;1.42;;
37273;SDS011;23161;51.250;5.554;2024-02-26T00:45:17;1.48;;;1.38;;
37273;SDS011;23161;51.250;5.554;2024-02-26T00:46:48;1.55;;;1.45;;
37273;SDS011;23161;51.250;5.554;2024-02-26T00:48:19;1.58;;;1.48;;
37273;SDS011;23161;51.250;5.554;2024-02-26T00:49:50;1.92;;;1.67;;
37273;SDS011;23161;51.250;5.554;2024-02-26T00:51:20;1.83;;;1.73;;
37273;SDS011;23161;51.250;5.554;2024-02-26T00:52:51;2.20;;;1.50;;
37273;SDS011;23161;51.250;5.554;2024-02-26T00:54:22;1.98;;;1.88;;
37273;SDS011;23161;51.250;5.554;2024-02-26T00:55:53;2.47;;;1.98;;
37273;SDS011;23161;51.250;5.554;2024-02-26T00:57:23;1.40;;;1.35;;
37273;SDS011;23161;51.250;5.554;2024-02-26T00:58:54;2.78;;;1.73;;
37273;SDS011;23161;51.250;5.554;2024-02-26T01:00:25;2.25;;;2.15;;
37273;SDS011;23161;51.250;5.554;2024-02-26T01:01:56;1.98;;;1.85;;
37273;SDS011;23161;51.250;5.554;2024-02-26T01:03:28;3.28;;;2.15;;
37273;SDS011;23161;51.250;5.554;2024-02-26T01:04:59;2.45;;;2.25;;
37273;SDS011;23161;51.250;5.554;2024-02-26T01:06:30;2.83;;;2.63;;
37273;SDS011;23161;51.250;5.554;2024-02-26T01:08:01;2.10;;;1.98;;
37273;SDS011;23161;51.250;5.554;2024-02-26T01:09:31;1.85;;;1.73;;
37273;SDS011;23161;51.250;5.554;2024-02-26T01:11:02;1.90;;;1.63;;
37273;SDS011;23161;51.250;5.554;2024-02-26T01:12:34;4.60;;;1.95;;
37273;SDS011;23161;51.250;5.554;2024-02-26T01:14:05;2.85;;;1.65;;
37273;SDS011;23161;51.250;5.554;2024-02-26T01:15:36;2.67;;;2.47;;
37273;SDS011;23161;51.250;5.554;2024-02-26T01:17:07;2.40;;;2.15;;
37273;SDS011;23161;51.250;5.554;2024-02-26T01:18:38;5.15;;;2.08;;
37273;SDS011;23161;51.250;5.554;2024-02-26T01:20:08;1.80;;;1.70;;
37273;SDS011;23161;51.250;5.554;2024-02-26T01:21:40;2.00;;;1.90;;
37273;SDS011;23161;51.250;5.554;2024-02-26T01:23:11;1.85;;;1.75;;
37273;SDS011;23161;51.250;5.554;2024-02-26T01:24:42;1.77;;;1.73;;
37273;SDS011;23161;51.250;5.554;2024-02-26T01:26:13;1.98;;;1.88;;
37273;SDS011;23161;51.250;5.554;2024-02-26T01:27:44;3.45;;;2.00;;
37273;SDS011;23161;51.250;5.554;2024-02-26T01:29:15;4.57;;;2.15;;
37273;SDS011;23161;51.250;5.554;2024-02-26T01:30:46;2.30;;;1.92;;
37273;SDS011;23161;51.250;5.554;2024-02-26T01:32:16;2.83;;;1.77;;
37273;SDS011;23161;51.250;5.554;2024-02-26T01:33:47;1.70;;;1.60;;
37273;SDS011;23161;51.250;5.554;2024-02-26T01:35:18;1.80;;;1.70;;
37273;SDS011;23161;51.250;5.554;2024-02-26T01:36:49;1.92;;;1.83;;
37273;SDS011;23161;51.250;5.554;2024-02-26T01:38:20;5.28;;;2.08;;
37273;SDS011;23161;51.250;5.554;2024-02-26T01:39:51;1.90;;;1.80;;
37273;SDS011;23161;51.250;5.554;2024-02-26T01:41:22;5.10;;;2.75;;
37273;SDS011;23161;51.250;5.554;2024-02-26T01:42:53;1.98;;;1.83;;
37273;SDS011;23161;51.250;5.554;2024-02-26T01:44:25;2.35;;;2.15;;
37273;SDS011;23161;51.250;5.554;2024-02-26T01:45:56;2.45;;;2.35;;
37273;SDS011;23161;51.250;5.554;2024-02-26T01:47:27;2.28;;;2.17;;
37273;SDS011;23161;51.250;5.554;2024-02-26T01:48:59;1.92;;;1.83;;
37273;SDS011;23161;51.250;5.554;2024-02-26T01:50:30;3.80;;;2.88;;
37273;SDS011;23161;51.250;5.554;2024-02-26T01:52:01;2.47;;;2.28;;
37273;SDS011;23161;51.250;5.554;2024-02-26T01:53:34;4.50;;;3.38;;
37273;SDS011;23161;51.250;5.554;2024-02-26T01:55:05;2.28;;;2.17;;
37273;SDS011;23161;51.250;5.554;2024-02-26T01:56:38;3.97;;;3.63;;
37273;SDS011;23161;51.250;5.554;2024-02-26T01:58:10;3.08;;;2.88;;
37273;SDS011;23161;51.250;5.554;2024-02-26T01:59:41;3.85;;;2.40;;
37273;SDS011;23161;51.250;5.554;2024-02-26T02:01:13;3.00;;;2.80;;
37273;SDS011;23161;51.250;5.554;2024-02-26T02:02:45;6.00;;;2.70;;
37273;SDS011;23161;51.250;5.554;2024-02-26T02:04:18;3.30;;;3.05;;
37273;SDS011;23161;51.250;5.554;2024-02-26T02:05:49;3.85;;;2.92;;
37273;SDS011;23161;51.250;5.554;2024-02-26T02:07:20;2.53;;;2.33;;
37273;SDS011;23161;51.250;5.554;2024-02-26T02:08:56;3.97;;;3.58;;
37273;SDS011;23161;51.250;5.554;2024-02-26T02:10:27;8.02;;;2.90;;
37273;SDS011;23161;51.250;5.554;2024-02-26T02:11:59;7.93;;;3.60;;
37273;SDS011;23161;51.250;5.554;2024-02-26T02:13:30;2.40;;;2.20;;
37273;SDS011;23161;51.250;5.554;2024-02-26T02:15:01;3.25;;;2.65;;
37273;SDS011;23161;51.250;5.554;2024-02-26T02:16:32;3.17;;;2.90;;
37273;SDS011;23161;51.250;5.554;2024-02-26T02:18:03;5.10;;;3.03;;
37273;SDS011;23161;51.250;5.554;2024-02-26T02:19:35;3.47;;;2.72;;
37273;SDS011;23161;51.250;5.554;2024-02-26T02:21:06;3.45;;;3.15;;
37273;SDS011;23161;51.250;5.554;2024-02-26T02:22:37;2.75;;;2.10;;
37273;SDS011;23161;51.250;5.554;2024-02-26T02:24:08;3.33;;;3.03;;
37273;SDS011;23161;51.250;5.554;2024-02-26T02:25:39;3.85;;;3.20;;
37273;SDS011;23161;51.250;5.554;2024-02-26T02:27:10;3.13;;;2.92;;
37273;SDS011;23161;51.250;5.554;2024-02-26T02:28:41;4.15;;;3.30;;
37273;SDS011;23161;51.250;5.554;2024-02-26T02:30:12;2.70;;;2.50;;
37273;SDS011;23161;51.250;5.554;2024-02-26T02:31:43;2.08;;;1.98;;
37273;SDS011;23161;51.250;5.554;2024-02-26T02:33:14;3.50;;;3.00;;
37273;SDS011;23161;51.250;5.554;2024-02-26T02:34:46;2.92;;;2.70;;
37273;SDS011;23161;51.250;5.554;2024-02-26T02:36:17;2.67;;;2.47;;
37273;SDS011;23161;51.250;5.554;2024-02-26T02:37:48;6.93;;;4.07;;
37273;SDS011;23161;51.250;5.554;2024-02-26T02:39:20;4.55;;;2.40;;
37273;SDS011;23161;51.250;5.554;2024-02-26T02:40:51;5.32;;;2.78;;
37273;SDS011;23161;51.250;5.554;2024-02-26T02:42:22;3.35;;;2.90;;
37273;SDS011;23161;51.250;5.554;2024-02-26T02:43:53;3.47;;;2.95;;
37273;SDS011;23161;51.250;5.554;2024-02-26T02:45:24;6.32;;;3.53;;
37273;SDS011;23161;51.250;5.554;2024-02-26T02:46:55;3.80;;;3.58;;
37273;SDS011;23161;51.250;5.554;2024-02-26T02:48:25;4.75;;;4.35;;
37273;SDS011;23161;51.250;5.554;2024-02-26T02:49:56;3.85;;;3.42;;
37273;SDS011;23161;51.250;5.554;2024-02-26T02:51:27;4.22;;;3.83;;
37273;SDS011;23161;51.250;5.554;2024-02-26T02:52:58;6.90;;;4.20;;
37273;SDS011;23161;51.250;5.554;2024-02-26T02:54:28;4.32;;;3.92;;
37273;SDS011;23161;51.250;5.554;2024-02-26T02:55:59;5.32;;;4.28;;
37273;SDS011;23161;51.250;5.554;2024-02-26T02:57:30;6.80;;;5.22;;
37273;SDS011;23161;51.250;5.554;2024-02-26T02:59:02;6.05;;;5.50;;
37273;SDS011;23161;51.250;5.554;2024-02-26T03:00:34;9.65;;;5.60;;
37273;SDS011;23161;51.250;5.554;2024-02-26T03:02:04;6.25;;;5.65;;
37273;SDS011;23161;51.250;5.554;2024-02-26T03:03:36;5.50;;;5.00;;
37273;SDS011;23161;51.250;5.554;2024-02-26T03:05:07;6.78;;;5.55;;
37273;SDS011;23161;51.250;5.554;2024-02-26T03:06:38;5.65;;;4.88;;
37273;SDS011;23161;51.250;5.554;2024-02-26T03:08:09;5.97;;;5.47;;
37273;SDS011;23161;51.250;5.554;2024-02-26T03:09:40;7.78;;;6.45;;
37273;SDS011;23161;51.250;5.554;2024-02-26T03:11:14;6.75;;;6.05;;
37273;SDS011;23161;51.250;5.554;2024-02-26T03:12:48;7.40;;;6.07;;
37273;SDS011;23161;51.250;5.554;2024-02-26T03:14:19;7.82;;;6.30;;
37273;SDS011;23161;51.250;5.554;2024-02-26T03:15:50;5.72;;;5.22;;
37273;SDS011;23161;51.250;5.554;2024-02-26T03:17:21;7.72;;;6.93;;
37273;SDS011;23161;51.250;5.554;2024-02-26T03:18:54;6.10;;;5.57;;
37273;SDS011;23161;51.250;5.554;2024-02-26T03:20:25;9.70;;;6.85;;
37273;SDS011;23161;51.250;5.554;2024-02-26T03:21:55;7.60;;;6.10;;
37273;SDS011;23161;51.250;5.554;2024-02-26T03:23:26;6.32;;;5.80;;
37273;SDS011;23161;51.250;5.554;2024-02-26T03:24:57;6.40;;;5.70;;
37273;SDS011;23161;51.250;5.554;2024-02-26T03:26:27;8.73;;;5.70;;
37273;SDS011;23161;51.250;5.554;2024-02-26T03:27:58;6.20;;;5.63;;
37273;SDS011;23161;51.250;5.554;2024-02-26T03:29:29;7.40;;;5.93;;
37273;SDS011;23161;51.250;5.554;2024-02-26T03:31:01;7.78;;;7.03;;
37273;SDS011;23161;51.250;5.554;2024-02-26T03:32:32;11.52;;;7.75;;
37273;SDS011;23161;51.250;5.554;2024-02-26T03:34:03;8.40;;;7.45;;
37273;SDS011;23161;51.250;5.554;2024-02-26T03:35:33;10.50;;;8.10;;
37273;SDS011;23161;51.250;5.554;2024-02-26T03:37:04;13.90;;;7.03;;
37273;SDS011;23161;51.250;5.554;2024-02-26T03:38:36;7.13;;;6.13;;
37273;SDS011;23161;51.250;5.554;2024-02-26T03:40:07;7.82;;;6.00;;
37273;SDS011;23161;51.250;5.554;2024-02-26T03:41:39;11.45;;;7.10;;
37273;SDS011;23161;51.250;5.554;2024-02-26T03:43:10;6.95;;;6.35;;
37273;SDS011;23161;51.250;5.554;2024-02-26T03:44:40;7.90;;;6.78;;
37273;SDS011;23161;51.250;5.554;2024-02-26T03:46:11;7.45;;;4.90;;
37273;SDS011;23161;51.250;5.554;2024-02-26T03:47:43;10.70;;;5.85;;
37273;SDS011;23161;51.250;5.554;2024-02-26T03:49:14;7.53;;;6.82;;
37273;SDS011;23161;51.250;5.554;2024-02-26T03:50:45;8.35;;;7.43;;
37273;SDS011;23161;51.250;5.554;2024-02-26T03:52:16;7.88;;;6.63;;
37273;SDS011;23161;51.250;5.554;2024-02-26T03:53:47;6.38;;;5.88;;
37273;SDS011;23161;51.250;5.554;2024-02-26T03:55:17;7.00;;;6.30;;
37273;SDS011;23161;51.250;5.554;2024-02-26T03:56:51;8.73;;;6.72;;
37273;SDS011;23161;51.250;5.554;2024-02-26T03:58:22;9.98;;;6.35;;
37273;SDS011;23161;51.250;5.554;2024-02-26T03:59:52;7.65;;;6.88;;
37273;SDS011;23161;51.250;5.554;2024-02-26T04:01:23;7.20;;;6.53;;
37273;SDS011;23161;51.250;5.554;2024-02-26T04:02:54;11.32;;;6.93;;
37273;SDS011;23161;51.250;5.554;2024-02-26T04:04:25;7.63;;;6.32;;
37273;SDS011;23161;51.250;5.554;2024-02-26T04:05:56;6.28;;;5.65;;
37273;SDS011;23161;51.250;5.554;2024-02-26T04:07:27;7.47;;;6.85;;
37273;SDS011;23161;51.250;5.554;2024-02-26T04:08:57;9.07;;;6.30;;
37273;SDS011;23161;51.250;5.554;2024-02-26T04:10:28;9.10;;;6.65;;
37273;SDS011;23161;51.250;5.554;2024-02-26T04:11:59;8.13;;;7.38;;
37273;SDS011;23161;51.250;5.554;2024-02-26T04:13:30;6.97;;;6.40;;
37273;SDS011;23161;51.250;5.554;2024-02-26T04:15:01;7.32;;;6.65;;
37273;SDS011;23161;51.250;5.554;2024-02-26T04:16:31;8.07;;;7.28;;
37273;SDS011;23161;51.250;5.554;2024-02-26T04:18:02;6.38;;;5.53;;
37273;SDS011;23161;51.250;5.554;2024-02-26T04:19:33;7.50;;;6.93;;
37273;SDS011;23161;51.250;5.554;2024-02-26T04:21:04;9.23;;;7.43;;
37273;SDS011;23161;51.250;5.554;2024-02-26T04:22:37;6.45;;;5.95;;
37273;SDS011;23161;51.250;5.554;2024-02-26T04:24:07;8.65;;;7.55;;
37273;SDS011;23161;51.250;5.554;2024-02-26T04:25:38;7.20;;;6.55;;
37273;SDS011;23161;51.250;5.554;2024-02-26T04:27:09;7.35;;;6.75;;
37273;SDS011;23161;51.250;5.554;2024-02-26T04:28:40;6.85;;;6.35;;
37273;SDS011;23161;51.250;5.554;2024-02-26T04:30:10;7.50;;;6.30;;
37273;SDS011;23161;51.250;5.554;2024-02-26T04:31:41;6.60;;;6.00;;
37273;SDS011;23161;51.250;5.554;2024-02-26T04:33:13;10.23;;;6.75;;
37273;SDS011;23161;51.250;5.554;2024-02-26T04:34:44;7.18;;;6.57;;
37273;SDS011;23161;51.250;5.554;2024-02-26T04:36:15;6.80;;;5.75;;
37273;SDS011;23161;51.250;5.554;2024-02-26T04:37:46;6.20;;;5.68;;
37273;SDS011;23161;51.250;5.554;2024-02-26T04:39:17;5.97;;;5.55;;
37273;SDS011;23161;51.250;5.554;2024-02-26T04:40:48;6.68;;;6.03;;
37273;SDS011;23161;51.250;5.554;2024-02-26T04:42:19;6.93;;;5.93;;
37273;SDS011;23161;51.250;5.554;2024-02-26T04:43:49;8.73;;;7.50;;
37273;SDS011;23161;51.250;5.554;2024-02-26T04:45:20;6.68;;;6.13;;
37273;SDS011;23161;51.250;5.554;2024-02-26T04:46:51;6.65;;;6.10;;
37273;SDS011;23161;51.250;5.554;2024-02-26T04:48:22;7.35;;;6.65;;
37273;SDS011;23161;51.250;5.554;2024-02-26T04:49:53;7.60;;;6.88;;
37273;SDS011;23161;51.250;5.554;2024-02-26T04:51:24;8.23;;;6.82;;
37273;SDS011;23161;51.250;5.554;2024-02-26T04:52:54;5.97;;;5.43;;
37273;SDS011;23161;51.250;5.554;2024-02-26T04:54:25;8.07;;;7.05;;
37273;SDS011;23161;51.250;5.554;2024-02-26T04:55:56;7.28;;;6.55;;
37273;SDS011;23161;51.250;5.554;2024-02-26T04:57:27;6.35;;;5.85;;
37273;SDS011;23161;51.250;5.554;2024-02-26T04:58:58;7.38;;;6.57;;
37273;SDS011;23161;51.250;5.554;2024-02-26T05:00:29;7.25;;;6.55;;
37273;SDS011;23161;51.250;5.554;2024-02-26T05:02:00;8.48;;;5.15;;
37273;SDS011;23161;51.250;5.554;2024-02-26T05:03:30;6.05;;;5.55;;
37273;SDS011;23161;51.250;5.554;2024-02-26T05:05:01;6.72;;;5.25;;
37273;SDS011;23161;51.250;5.554;2024-02-26T05:06:32;6.28;;;5.57;;
37273;SDS011;23161;51.250;5.554;2024-02-26T05:08:03;8.13;;;6.05;;
37273;SDS011;23161;51.250;5.554;2024-02-26T05:09:34;6.43;;;5.90;;
37273;SDS011;23161;51.250;5.554;2024-02-26T05:11:05;5.60;;;5.13;;
37273;SDS011;23161;51.250;5.554;2024-02-26T05:12:36;10.40;;;6.35;;
37273;SDS011;23161;51.250;5.554;2024-02-26T05:14:07;6.45;;;5.95;;
37273;SDS011;23161;51.250;5.554;2024-02-26T05:15:38;7.00;;;6.50;;
37273;SDS011;23161;51.250;5.554;2024-02-26T05:17:09;6.22;;;5.72;;
37273;SDS011;23161;51.250;5.554;2024-02-26T05:18:40;5.93;;;5.47;;
37273;SDS011;23161;51.250;5.554;2024-02-26T05:20:10;7.97;;;6.65;;
37273;SDS011;23161;51.250;5.554;2024-02-26T05:21:41;5.72;;;5.20;;
37273;SDS011;23161;51.250;5.554;2024-02-26T05:23:14;8.77;;;7.90;;
37273;SDS011;23161;51.250;5.554;2024-02-26T05:24:45;5.95;;;5.40;;
37273;SDS011;23161;51.250;5.554;2024-02-26T05:26:24;5.72;;;5.13;;
37273;SDS011;23161;51.250;5.554;2024-02-26T05:27:55;7.28;;;5.47;;
37273;SDS011;23161;51.250;5.554;2024-02-26T05:29:25;7.53;;;5.68;;
37273;SDS011;23161;51.250;5.554;2024-02-26T05:30:56;7.20;;;6.60;;
37273;SDS011;23161;51.250;5.554;2024-02-26T05:32:27;5.53;;;5.13;;
37273;SDS011;23161;51.250;5.554;2024-02-26T05:33:57;10.13;;;6.07;;
37273;SDS011;23161;51.250;5.554;2024-02-26T05:35:28;6.60;;;6.00;;
37273;SDS011;23161;51.250;5.554;2024-02-26T05:36:59;6.53;;;6.03;;
37273;SDS011;23161;51.250;5.554;2024-02-26T05:38:30;6.05;;;5.65;;
37273;SDS011;23161;51.250;5.554;2024-02-26T05:40:01;7.07;;;6.53;;
37273;SDS011;23161;51.250;5.554;2024-02-26T05:41:34;6.78;;;5.75;;
37273;SDS011;23161;51.250;5.554;2024-02-26T05:43:05;6.00;;;5.60;;
37273;SDS011;23161;51.250;5.554;2024-02-26T05:44:36;7.35;;;6.75;;
37273;SDS011;23161;51.250;5.554;2024-02-26T05:46:07;8.40;;;5.97;;
37273;SDS011;23161;51.250;5.554;2024-02-26T05:47:38;5.63;;;5.13;;
37273;SDS011;23161;51.250;5.554;2024-02-26T05:49:12;6.25;;;5.75;;
37273;SDS011;23161;51.250;5.554;2024-02-26T05:50:43;8.82;;;7.53;;
37273;SDS011;23161;51.250;5.554;2024-02-26T05:52:14;5.88;;;5.47;;
37273;SDS011;23161;51.250;5.554;2024-02-26T05:53:45;6.38;;;5.78;;
37273;SDS011;23161;51.250;5.554;2024-02-26T05:55:17;10.88;;;7.30;;
37273;SDS011;23161;51.250;5.554;2024-02-26T05:56:48;5.22;;;4.90;;
37273;SDS011;23161;51.250;5.554;2024-02-26T05:58:18;6.20;;;5.60;;
37273;SDS011;23161;51.250;5.554;2024-02-26T05:59:49;9.68;;;6.70;;
37273;SDS011;23161;51.250;5.554;2024-02-26T06:01:20;6.78;;;6.15;;
37273;SDS011;23161;51.250;5.554;2024-02-26T06:02:51;6.82;;;6.30;;
37273;SDS011;23161;51.250;5.554;2024-02-26T06:04:22;8.10;;;5.38;;
37273;SDS011;23161;51.250;5.554;2024-02-26T06:05:52;5.93;;;5.43;;
37273;SDS011;23161;51.250;5.554;2024-02-26T06:07:23;23.70;;;6.80;;
37273;SDS011;23161;51.250;5.554;2024-02-26T06:08:54;9.60;;;6.75;;
37273;SDS011;23161;51.250;5.554;2024-02-26T06:10:25;6.57;;;6.07;;
37273;SDS011;23161;51.250;5.554;2024-02-26T06:11:56;5.80;;;5.25;;
37273;SDS011;23161;51.250;5.554;2024-02-26T06:13:26;6.00;;;5.53;;
37273;SDS011;23161;51.250;5.554;2024-02-26T06:14:57;6.47;;;5.88;;
37273;SDS011;23161;51.250;5.554;2024-02-26T06:16:31;5.43;;;4.72;;
37273;SDS011;23161;51.250;5.554;2024-02-26T06:18:02;6.05;;;5.50;;
37273;SDS011;23161;51.250;5.554;2024-02-26T06:19:32;6.93;;;5.70;;
37273;SDS011;23161;51.250;5.554;2024-02-26T06:21:04;5.47;;;5.00;;
37273;SDS011;23161;51.250;5.554;2024-02-26T06:22:35;5.30;;;4.80;;
37273;SDS011;23161;51.250;5.554;2024-02-26T06:24:05;5.75;;;5.28;;
37273;SDS011;23161;51.250;5.554;2024-02-26T06:25:36;5.60;;;5.15;;
37273;SDS011;23161;51.250;5.554;2024-02-26T06:27:07;5.93;;;5.30;;
37273;SDS011;23161;51.250;5.554;2024-02-26T06:28:38;6.07;;;5.57;;
37273;SDS011;23161;51.250;5.554;2024-02-26T06:30:10;6.88;;;6.25;;
37273;SDS011;23161;51.250;5.554;2024-02-26T06:31:42;7.05;;;6.40;;
37273;SDS011;23161;51.250;5.554;2024-02-26T06:33:13;6.10;;;5.60;;
37273;SDS011;23161;51.250;5.554;2024-02-26T06:34:44;6.38;;;5.88;;
37273;SDS011;23161;51.250;5.554;2024-02-26T06:36:17;4.65;;;4.28;;
37273;SDS011;23161;51.250;5.554;2024-02-26T06:37:49;5.25;;;4.85;;
37273;SDS011;23161;51.250;5.554;2024-02-26T06:39:22;6.57;;;5.88;;
37273;SDS011;23161;51.250;5.554;2024-02-26T06:40:53;5.95;;;5.45;;
37273;SDS011;23161;51.250;5.554;2024-02-26T06:42:24;6.13;;;5.53;;
37273;SDS011;23161;51.250;5.554;2024-02-26T06:43:55;6.15;;;5.55;;
37273;SDS011;23161;51.250;5.554;2024-02-26T06:45:26;5.97;;;5.40;;
37273;SDS011;23161;51.250;5.554;2024-02-26T06:47:00;6.20;;;5.70;;
37273;SDS011;23161;51.250;5.554;2024-02-26T06:48:31;7.25;;;6.65;;
37273;SDS011;23161;51.250;5.554;2024-02-26T06:50:02;6.28;;;5.00;;
37273;SDS011;23161;51.250;5.554;2024-02-26T06:51:33;11.40;;;7.50;;
37273;SDS011;23161;51.250;5.554;2024-02-26T06:53:04;6.80;;;6.20;;
37273;SDS011;23161;51.250;5.554;2024-02-26T06:54:37;5.90;;;5.32;;
37273;SDS011;23161;51.250;5.554;2024-02-26T06:56:07;6.30;;;5.72;;
37273;SDS011;23161;51.250;5.554;2024-02-26T06:57:38;5.32;;;4.82;;
37273;SDS011;23161;51.250;5.554;2024-02-26T06:59:09;5.07;;;4.65;;
37273;SDS011;23161;51.250;5.554;2024-02-26T07:00:40;8.23;;;5.57;;
37273;SDS011;23161;51.250;5.554;2024-02-26T07:02:11;6.28;;;5.68;;
37273;SDS011;23161;51.250;5.554;2024-02-26T07:03:41;5.68;;;5.18;;
37273;SDS011;23161;51.250;5.554;2024-02-26T07:05:12;6.00;;;5.50;;
37273;SDS011;23161;51.250;5.554;2024-02-26T07:06:43;7.38;;;6.63;;
37273;SDS011;23161;51.250;5.554;2024-02-26T07:08:16;5.95;;;5.43;;
37273;SDS011;23161;51.250;5.554;2024-02-26T07:09:47;6.32;;;5.72;;
37273;SDS011;23161;51.250;5.554;2024-02-26T07:11:18;6.07;;;5.53;;
37273;SDS011;23161;51.250;5.554;2024-02-26T07:12:50;6.20;;;5.70;;
37273;SDS011;23161;51.250;5.554;2024-02-26T07:14:20;7.50;;;6.90;;
37273;SDS011;23161;51.250;5.554;2024-02-26T07:15:51;6.97;;;6.35;;
37273;SDS011;23161;51.250;5.554;2024-02-26T07:17:22;7.07;;;6.50;;
37273;SDS011;23161;51.250;5.554;2024-02-26T07:18:53;5.22;;;4.82;;
37273;SDS011;23161;51.250;5.554;2024-02-26T07:20:23;7.18;;;6.15;;
37273;SDS011;23161;51.250;5.554;2024-02-26T07:21:54;5.57;;;5.18;;
37273;SDS011;23161;51.250;5.554;2024-02-26T07:23:25;8.20;;;7.28;;
37273;SDS011;23161;51.250;5.554;2024-02-26T07:24:56;6.60;;;6.00;;
37273;SDS011;23161;51.250;5.554;2024-02-26T07:26:27;6.70;;;6.13;;
37273;SDS011;23161;51.250;5.554;2024-02-26T07:28:00;6.95;;;6.35;;
37273;SDS011;23161;51.250;5.554;2024-02-26T07:29:39;3.60;;;3.40;;
37273;SDS011;23161;51.250;5.554;2024-02-26T07:31:10;8.90;;;5.80;;
37273;SDS011;23161;51.250;5.554;2024-02-26T07:32:41;5.40;;;4.93;;
37273;SDS011;23161;51.250;5.554;2024-02-26T07:34:12;5.43;;;5.03;;
37273;SDS011;23161;51.250;5.554;2024-02-26T07:35:43;6.47;;;5.93;;
37273;SDS011;23161;51.250;5.554;2024-02-26T07:37:14;7.20;;;6.50;;
37273;SDS011;23161;51.250;5.554;2024-02-26T07:38:45;8.25;;;7.55;;
37273;SDS011;23161;51.250;5.554;2024-02-26T07:40:16;6.30;;;5.80;;
37273;SDS011;23161;51.250;5.554;2024-02-26T07:41:47;6.00;;;5.60;;
37273;SDS011;23161;51.250;5.554;2024-02-26T07:43:19;6.70;;;6.10;;
37273;SDS011;23161;51.250;5.554;2024-02-26T07:44:50;5.82;;;5.43;;
37273;SDS011;23161;51.250;5.554;2024-02-26T07:46:21;7.20;;;6.60;;
37273;SDS011;23161;51.250;5.554;2024-02-26T07:47:52;5.97;;;5.40;;
37273;SDS011;23161;51.250;5.554;2024-02-26T07:49:23;6.97;;;6.32;;
37273;SDS011;23161;51.250;5.554;2024-02-26T07:50:54;8.18;;;7.43;;
37273;SDS011;23161;51.250;5.554;2024-02-26T07:52:24;6.88;;;6.28;;
37273;SDS011;23161;51.250;5.554;2024-02-26T07:53:55;6.53;;;5.90;;
37273;SDS011;23161;51.250;5.554;2024-02-26T07:55:26;7.60;;;6.90;;
37273;SDS011;23161;51.250;5.554;2024-02-26T07:56:57;6.32;;;5.72;;
37273;SDS011;23161;51.250;5.554;2024-02-26T07:58:28;7.57;;;6.97;;
37273;SDS011;23161;51.250;5.554;2024-02-26T07:59:59;8.90;;;8.18;;
37273;SDS011;23161;51.250;5.554;2024-02-26T08:01:30;6.43;;;5.75;;
37273;SDS011;23161;51.250;5.554;2024-02-26T08:03:01;8.45;;;7.75;;
37273;SDS011;23161;51.250;5.554;2024-02-26T08:04:32;7.25;;;6.65;;
37273;SDS011;23161;51.250;5.554;2024-02-26T08:06:03;8.45;;;7.63;;
37273;SDS011;23161;51.250;5.554;2024-02-26T08:07:34;9.05;;;8.35;;
37273;SDS011;23161;51.250;5.554;2024-02-26T08:09:04;6.93;;;6.38;;
37273;SDS011;23161;51.250;5.554;2024-02-26T08:10:35;10.55;;;8.77;;
37273;SDS011;23161;51.250;5.554;2024-02-26T08:12:06;8.07;;;7.40;;
37273;SDS011;23161;51.250;5.554;2024-02-26T08:13:37;8.02;;;7.28;;
37273;SDS011;23161;51.250;5.554;2024-02-26T08:15:08;7.63;;;7.03;;
37273;SDS011;23161;51.250;5.554;2024-02-26T08:16:39;8.32;;;7.60;;
37273;SDS011;23161;51.250;5.554;2024-02-26T08:18:10;8.57;;;7.10;;
37273;SDS011;23161;51.250;5.554;2024-02-26T08:19:40;6.95;;;6.25;;
37273;SDS011;23161;51.250;5.554;2024-02-26T08:21:11;8.68;;;7.97;;
37273;SDS011;23161;51.250;5.554;2024-02-26T08:22:42;8.18;;;7.47;;
37273;SDS011;23161;51.250;5.554;2024-02-26T08:24:13;7.30;;;6.80;;
37273;SDS011;23161;51.250;5.554;2024-02-26T08:25:44;7.10;;;6.50;;
37273;SDS011;23161;51.250;5.554;2024-02-26T08:27:15;6.18;;;5.68;;
37273;SDS011;23161;51.250;5.554;2024-02-26T08:28:46;6.72;;;6.05;;
37273;SDS011;23161;51.250;5.554;2024-02-26T08:30:18;6.90;;;6.28;;
37273;SDS011;23161;51.250;5.554;2024-02-26T08:31:48;6.95;;;6.20;;
37273;SDS011;23161;51.250;5.554;2024-02-26T08:33:20;8.05;;;7.22;;
37273;SDS011;23161;51.250;5.554;2024-02-26T08:34:51;7.57;;;6.95;;
37273;SDS011;23161;51.250;5.554;2024-02-26T08:36:22;6.60;;;6.05;;
37273;SDS011;23161;51.250;5.554;2024-02-26T08:37:52;6.97;;;6.38;;
37273;SDS011;23161;51.250;5.554;2024-02-26T08:39:23;11.07;;;6.43;;
37273;SDS011;23161;51.250;5.554;2024-02-26T08:40:55;6.95;;;6.00;;
37273;SDS011;23161;51.250;5.554;2024-02-26T08:42:26;7.22;;;6.63;;
37273;SDS011;23161;51.250;5.554;2024-02-26T08:43:57;7.43;;;6.72;;
37273;SDS011;23161;51.250;5.554;2024-02-26T08:45:28;7.07;;;6.47;;
37273;SDS011;23161;51.250;5.554;2024-02-26T08:46:59;6.85;;;6.15;;
37273;SDS011;23161;51.250;5.554;2024-02-26T08:48:30;5.88;;;5.40;;
37273;SDS011;23161;51.250;5.554;2024-02-26T08:50:00;7.60;;;6.55;;
37273;SDS011;23161;51.250;5.554;2024-02-26T08:51:31;7.65;;;6.82;;
37273;SDS011;23161;51.250;5.554;2024-02-26T08:53:02;6.65;;;6.13;;
37273;SDS011;23161;51.250;5.554;2024-02-26T08:54:34;6.28;;;5.78;;
37273;SDS011;23161;51.250;5.554;2024-02-26T08:56:05;6.78;;;6.18;;
37273;SDS011;23161;51.250;5.554;2024-02-26T08:57:36;7.38;;;6.10;;
37273;SDS011;23161;51.250;5.554;2024-02-26T08:59:08;5.68;;;5.28;;
37273;SDS011;23161;51.250;5.554;2024-02-26T09:00:39;9.15;;;8.48;;
37273;SDS011;23161;51.250;5.554;2024-02-26T09:02:10;7.55;;;6.88;;
37273;SDS011;23161;51.250;5.554;2024-02-26T09:03:40;5.85;;;5.28;;
37273;SDS011;23161;51.250;5.554;2024-02-26T09:05:11;7.15;;;6.53;;
37273;SDS011;23161;51.250;5.554;2024-02-26T09:06:42;6.90;;;6.40;;
37273;SDS011;23161;51.250;5.554;2024-02-26T09:08:13;6.35;;;5.85;;
37273;SDS011;23161;51.250;5.554;2024-02-26T09:09:44;6.38;;;5.88;;